Terminal Aerodrome Forecast
Issued by NWS Blacksburg, VA

Current Version | Previous Version | Graphics & Text | Print | Product List | Glossary Off
Versions: 1 2 3 4 5 6 7 8 9 10 11 12 13 14 15 16 17 18

000
FTUS41 KRNK 180529
TAFBLF
TAF
KBLF 180529Z 1806/1906 26005KT P6SM SKC
      TEMPO 1806/1810 OVC020
     FM181200 25006KT P6SM BKN120
     FM181500 26007KT P6SM VCTS SCT025 BKN050CB
      TEMPO 1816/1819 3SM SHRA BKN025
     FM181900 27007KT P6SM VCTS BKN045CB
     FM182200 27008KT P6SM SCT045=

USA.gov is the U.S. government's official web portal to all federal, state and local government web resources and services.